Time;durP1;ratioP1;P1;durP2;ratioP2;P2;SDS_P1;SDS_P2;PMS_P1;PMS_P2;Temp;Humidity;BMP_temperature;BMP_pressure;BME280_temperature;BME280_humidity;BME280_pressure;Samples;Min_cycle;Max_cycle;Signal;HPM_P1;HPM_P2
2022/03/14 00:01:36;;;;;;;45.33;19.47;;;;;;;-1.10;64.37;100084.26;2171387;82;20957;-80
2022/03/14 00:04:37;;;;;;;35.93;19.43;;;;;;;-1.12;64.99;100087.09;2171078;82;21392;-80
2022/03/14 00:07:39;;;;;;;34.43;18.73;;;;;;;-1.14;64.37;100077.50;2172015;81;20993;-82
2022/03/14 00:10:41;;;;;;;35.63;18.73;;;;;;;-1.19;64.57;100078.81;2171036;81;20985;-83
2022/03/14 00:13:43;;;;;;;37.20;19.17;;;;;;;-1.19;65.71;100078.81;2170342;81;21194;-82
2022/03/14 00:16:46;;;;;;;42.20;20.80;;;;;;;-1.23;65.01;100077.69;2169985;81;21004;-81
2022/03/14 00:19:47;;;;;;;33.30;18.47;;;;;;;-1.22;65.06;100086.27;2170135;82;20933;-82
2022/03/14 00:22:48;;;;;;;32.70;18.87;;;;;;;-1.25;64.79;100081.80;2170928;82;21000;-82
2022/03/14 00:25:50;;;;;;;49.03;20.10;;;;;;;-1.30;65.51;100078.88;2172756;82;21008;-82
2022/03/14 00:28:50;;;;;;;37.53;19.37;;;;;;;-1.32;65.17;100082.98;2172964;82;20910;-81
2022/03/14 00:31:51;;;;;;;35.53;19.03;;;;;;;-1.33;65.05;100081.59;2173000;82;20944;-82
2022/03/14 00:34:51;;;;;;;40.70;20.40;;;;;;;-1.36;65.33;100082.23;2172886;81;21064;-82
2022/03/14 00:37:52;;;;;;;34.13;19.00;;;;;;;-1.35;65.41;100076.73;2173076;81;20933;-82
2022/03/14 00:40:52;;;;;;;35.90;19.27;;;;;;;-1.37;65.77;100074.44;2173032;81;20972;-82
2022/03/14 00:43:53;;;;;;;37.23;19.63;;;;;;;-1.40;65.78;100076.77;2173442;81;20921;-81
2022/03/14 00:46:55;;;;;;;34.47;18.77;;;;;;;-1.40;65.60;100089.56;2173048;81;20917;-81
2022/03/14 00:49:55;;;;;;;37.73;19.30;;;;;;;-1.44;65.32;100087.16;2172938;81;20977;-82
2022/03/14 00:52:56;;;;;;;57.20;22.03;;;;;;;-1.44;65.42;100085.88;2172896;81;20934;-82
2022/03/14 00:55:56;;;;;;;37.23;19.13;;;;;;;-1.46;66.06;100083.58;2173129;81;21383;-82
2022/03/14 00:58:59;;;;;;;43.40;20.43;;;;;;;-1.51;65.69;100079.77;2172949;81;20960;-82
2022/03/14 01:01:59;;;;;;;33.87;17.47;;;;;;;-1.53;65.89;100083.88;2172900;81;20965;-82
2022/03/14 01:04:59;;;;;;;41.63;19.80;;;;;;;-1.57;65.91;100080.56;2172604;81;21371;-81
2022/03/14 01:08:00;;;;;;;45.30;21.03;;;;;;;-1.59;66.56;100079.55;2172902;81;21347;-82
2022/03/14 01:11:01;;;;;;;39.63;21.00;;;;;;;-1.57;66.20;100084.41;2172891;82;20941;-81
2022/03/14 01:14:01;;;;;;;36.13;18.90;;;;;;;-1.54;66.19;100088.48;2172863;81;21004;-81
2022/03/14 01:17:02;;;;;;;36.80;20.17;;;;;;;-1.56;65.96;100091.31;2172645;81;20992;-81
2022/03/14 01:20:02;;;;;;;36.20;20.40;;;;;;;-1.56;65.89;100092.98;2172718;81;20946;-81
2022/03/14 01:23:03;;;;;;;34.37;19.47;;;;;;;-1.56;65.75;100088.75;2175246;81;21355;-81
2022/03/14 01:26:04;;;;;;;33.00;19.30;;;;;;;-1.54;65.77;100087.59;2179603;82;20925;-82
2022/03/14 01:29:05;;;;;;;35.57;19.40;;;;;;;-1.53;65.92;100086.81;2177119;82;20941;-81
2022/03/14 01:32:06;;;;;;;37.83;19.17;;;;;;;-1.50;65.68;100084.11;2170639;81;21056;-81
2022/03/14 01:35:07;;;;;;;34.50;18.33;;;;;;;-1.54;65.52;100085.92;2170640;81;20973;-82
2022/03/14 01:38:08;;;;;;;32.67;18.13;;;;;;;-1.61;65.60;100078.53;2170494;81;20968;-82
2022/03/14 01:41:10;;;;;;;34.10;18.30;;;;;;;-1.69;65.88;100084.72;2170864;82;20898;-81
2022/03/14 01:44:10;;;;;;;40.77;19.43;;;;;;;-1.72;66.31;100085.36;2170390;81;21013;-81
2022/03/14 01:47:11;;;;;;;35.43;18.50;;;;;;;-1.72;66.16;100085.75;2169082;81;21401;-81
2022/03/14 01:50:12;;;;;;;32.83;18.33;;;;;;;-1.76;66.05;100091.37;2169279;81;21195;-81
2022/03/14 01:53:12;;;;;;;36.87;18.87;;;;;;;-1.78;66.62;100096.75;2170278;81;21044;-82
2022/03/14 01:56:13;;;;;;;36.40;20.10;;;;;;;-1.78;66.54;100094.19;2170345;81;20985;-81
2022/03/14 01:59:13;;;;;;;32.73;18.60;;;;;;;-1.79;66.29;100090.73;2170371;81;20976;-81
2022/03/14 02:02:14;;;;;;;36.70;19.00;;;;;;;-1.81;66.26;100090.11;2170408;81;20933;-81
2022/03/14 02:05:16;;;;;;;35.93;20.37;;;;;;;-1.82;67.23;100085.76;2170724;81;20988;-82
2022/03/14 02:08:16;;;;;;;33.60;18.43;;;;;;;-1.83;66.96;100089.09;2170607;81;20969;-82
2022/03/14 02:11:17;;;;;;;38.30;19.93;;;;;;;-1.84;66.81;100087.30;2170828;81;21332;-81
2022/03/14 02:14:17;;;;;;;38.47;19.40;;;;;;;-1.86;66.69;100085.00;2170736;81;21000;-81
2022/03/14 02:17:20;;;;;;;38.00;19.80;;;;;;;-1.84;67.00;100089.86;2170659;81;20925;-81
2022/03/14 02:20:20;;;;;;;41.70;19.87;;;;;;;-1.84;67.01;100088.20;2170659;82;20996;-83
2022/03/14 02:23:21;;;;;;;30.77;18.70;;;;;;;-1.85;66.99;100087.69;2171188;81;21364;-82
2022/03/14 02:26:21;;;;;;;38.37;20.30;;;;;;;-1.87;66.94;100090.51;2171106;81;20972;-82
2022/03/14 02:29:23;;;;;;;42.53;19.93;;;;;;;-1.88;67.21;100095.13;2171008;81;21011;-79
2022/03/14 02:32:24;;;;;;;43.53;20.43;;;;;;;-1.89;67.67;100092.05;2170151;81;20929;-82
2022/03/14 02:35:24;;;;;;;36.33;19.60;;;;;;;-1.89;67.18;100095.00;2170152;81;20953;-83
2022/03/14 02:38:25;;;;;;;35.73;18.40;;;;;;;-1.86;67.21;100097.80;2171145;81;20949;-82
2022/03/14 02:41:25;;;;;;;39.20;22.17;;;;;;;-1.87;67.44;100107.14;2172040;81;20921;-83
2022/03/14 02:44:26;;;;;;;37.67;19.37;;;;;;;-1.88;67.27;100107.02;2171127;81;20894;-83
2022/03/14 02:47:26;;;;;;;34.73;19.77;;;;;;;-1.88;66.95;100112.14;2171022;81;20925;-82
2022/03/14 02:50:30;;;;;;;38.53;20.27;;;;;;;-1.90;67.48;100116.24;2171224;82;21284;-82
2022/03/14 02:53:29;;;;;;;38.30;19.33;;;;;;;-1.89;67.42;100111.63;2171046;81;21042;-82
2022/03/14 02:56:30;;;;;;;47.33;22.33;;;;;;;-1.89;67.29;100121.87;2171604;81;20910;-80
2022/03/14 02:59:30;;;;;;;41.17;21.33;;;;;;;-1.88;67.90;100117.26;2171795;81;21328;-83
2022/03/14 03:02:33;;;;;;;43.53;21.43;;;;;;;-1.85;67.36;100125.19;2173089;81;20929;-83
2022/03/14 03:05:34;;;;;;;35.07;20.77;;;;;;;-1.88;67.08;100123.27;2171716;81;21115;-83
2022/03/14 03:08:35;;;;;;;42.33;22.33;;;;;;;-1.88;67.10;100131.34;2171662;81;20989;-85
2022/03/14 03:11:36;;;;;;;104.83;26.83;;;;;;;-1.89;67.22;100134.28;2172238;82;21380;-85
2022/03/14 03:14:37;;;;;;;43.03;20.07;;;;;;;-1.89;67.22;100133.00;2171679;81;21008;-84
2022/03/14 03:17:37;;;;;;;38.67;21.20;;;;;;;-1.92;67.35;100142.60;2171484;81;20898;-84
2022/03/14 03:20:38;;;;;;;41.17;20.33;;;;;;;-1.94;67.17;100141.58;2170660;81;21317;-84
2022/03/14 03:26:43;;;;;;;43.60;19.30;;;;;;;-1.99;67.19;100149.27;2162150;82;21032;-84
2022/03/14 03:32:47;;;;;;;41.97;21.30;;;;;;;-2.05;67.42;100159.39;2159797;82;21380;-83
2022/03/14 03:35:47;;;;;;;34.03;20.17;;;;;;;-2.06;67.40;100151.20;2172356;81;20968;-84
2022/03/14 03:38:48;;;;;;;33.10;19.50;;;;;;;-2.09;67.49;100157.35;2172223;81;20921;-84
2022/03/14 03:41:48;;;;;;;52.37;22.53;;;;;;;-2.12;67.59;100160.94;2170387;81;20909;-85
2022/03/14 03:44:49;;;;;;;38.37;21.23;;;;;;;-2.13;67.58;100163.88;2171562;81;21308;-84
2022/03/14 03:47:49;;;;;;;40.20;21.63;;;;;;;-2.17;67.54;100161.84;2171475;81;20941;-83
2022/03/14 03:50:50;;;;;;;48.17;23.00;;;;;;;-2.21;67.66;100157.62;2190084;81;20929;-83
2022/03/14 03:53:50;;;;;;;40.43;20.93;;;;;;;-2.23;67.64;100161.33;2189952;81;21028;-84
2022/03/14 03:56:51;;;;;;;41.57;21.43;;;;;;;-2.27;67.87;100165.69;2189876;81;20991;-84
2022/03/14 03:59:51;;;;;;;35.90;19.70;;;;;;;-2.31;68.00;100170.04;2190051;81;20932;-85
2022/03/14 04:02:52;;;;;;;39.00;20.20;;;;;;;-2.35;67.88;100175.66;2189877;81;21403;-84
2022/03/14 04:05:53;;;;;;;40.83;21.00;;;;;;;-2.42;68.03;100170.42;2190490;81;20956;-84
2022/03/14 04:08:54;;;;;;;35.17;19.60;;;;;;;-2.44;68.27;100177.45;2184367;81;20905;-84
2022/03/14 04:11:58;;;;;;;34.20;20.87;;;;;;;-2.46;68.48;100177.71;2170128;82;20940;-84
2022/03/14 04:14:59;;;;;;;37.03;21.37;;;;;;;-2.49;68.50;100180.02;2172192;81;21025;-85
2022/03/14 04:18:02;;;;;;;89.93;29.07;;;;;;;-2.55;68.74;100172.72;2171187;81;20937;-83
2022/03/14 04:21:02;;;;;;;41.47;21.07;;;;;;;-2.56;69.06;100183.71;2170173;81;21024;-84
2022/03/14 04:24:06;;;;;;;39.60;21.63;;;;;;;-2.56;68.95;100190.11;2170609;81;20977;-83
2022/03/14 04:27:05;;;;;;;43.37;21.57;;;;;;;-2.58;69.03;100193.81;2169901;81;20988;-84
2022/03/14 04:30:06;;;;;;;37.37;20.40;;;;;;;-2.61;68.96;100196.08;2170723;81;20987;-83
2022/03/14 04:33:08;;;;;;;39.60;21.67;;;;;;;-2.65;68.85;100195.30;2170679;81;21039;-84
2022/03/14 04:36:09;;;;;;;37.70;19.67;;;;;;;-2.58;68.97;100196.75;2170048;82;20952;-84
2022/03/14 04:39:12;;;;;;;41.07;20.73;;;;;;;-2.59;70.43;100195.86;2170876;81;20945;-83
2022/03/14 04:42:15;;;;;;;74.80;39.87;;;;;;;-2.51;69.02;100193.95;2171154;81;20933;-84
2022/03/14 04:45:15;;;;;;;46.60;24.00;;;;;;;-2.43;69.62;100200.98;2169511;82;20992;-82
2022/03/14 04:48:16;;;;;;;38.27;21.07;;;;;;;-2.45;68.81;100203.41;2170742;81;20942;-85
2022/03/14 04:51:17;;;;;;;46.60;22.67;;;;;;;-2.39;69.07;100201.37;2171254;81;20961;-84
2022/03/14 04:54:18;;;;;;;34.67;21.10;;;;;;;-2.47;68.76;100195.99;2170418;81;21447;-84
2022/03/14 04:57:19;;;;;;;37.00;21.23;;;;;;;-2.52;68.79;100200.20;2158040;82;21144;-84
2022/03/14 05:00:20;;;;;;;85.97;27.63;;;;;;;-2.60;68.97;100195.34;2170864;81;21347;-84
2022/03/14 05:03:20;;;;;;;43.90;22.83;;;;;;;-2.65;68.96;100199.52;2171155;82;20921;-84
2022/03/14 05:06:21;;;;;;;41.13;21.50;;;;;;;-2.69;69.06;100202.20;2169233;82;20917;-84
2022/03/14 05:09:22;;;;;;;41.37;22.80;;;;;;;-2.71;69.30;100201.55;2169255;81;20999;-83
2022/03/14 05:12:24;;;;;;;40.40;22.47;;;;;;;-2.72;69.74;100201.94;2169285;82;20976;-84
2022/03/14 05:15:25;;;;;;;42.20;22.57;;;;;;;-2.73;69.23;100200.14;2168123;81;20979;-83
2022/03/14 05:18:26;;;;;;;40.80;23.40;;;;;;;-2.73;69.38;100203.09;2168905;82;20992;-84
2022/03/14 05:21:27;;;;;;;46.70;23.17;;;;;;;-2.71;69.41;100202.45;2169415;81;21071;-83
2022/03/14 05:24:28;;;;;;;48.43;23.93;;;;;;;-2.70;69.65;100200.41;2167912;81;21020;-83
2022/03/14 05:27:28;;;;;;;41.97;21.20;;;;;;;-2.70;69.76;100199.52;2167366;81;20948;-84
2022/03/14 05:30:29;;;;;;;44.50;22.27;;;;;;;-2.69;70.04;100199.64;2168356;81;20964;-85
2022/03/14 05:33:30;;;;;;;39.70;23.00;;;;;;;-2.63;69.96;100205.66;2166705;81;21051;-83
2022/03/14 05:36:30;;;;;;;40.73;23.23;;;;;;;-2.60;69.71;100213.23;2166533;81;20988;-82
2022/03/14 05:39:31;;;;;;;41.07;22.73;;;;;;;-2.57;69.75;100214.78;2166670;81;20964;-83
2022/03/14 05:42:31;;;;;;;41.07;24.17;;;;;;;-2.49;69.82;100213.25;2168655;81;20991;-83
2022/03/14 05:45:32;;;;;;;43.30;23.30;;;;;;;-2.38;69.87;100212.11;2168508;81;20988;-80
2022/03/14 05:48:32;;;;;;;58.50;24.63;;;;;;;-2.25;70.02;100211.09;2168238;81;20964;-83
2022/03/14 05:51:34;;;;;;;52.67;25.90;;;;;;;-2.10;69.91;100216.58;2167102;81;20988;-83
2022/03/14 05:54:38;;;;;;;40.38;24.20;;;;;;;-1.97;69.44;100212.09;2168485;82;21685;-83
2022/03/14 05:57:39;;;;;;;47.53;24.67;;;;;;;-1.79;69.08;100214.88;2167199;81;20984;-83
2022/03/14 06:00:39;;;;;;;48.50;25.67;;;;;;;-1.63;68.77;100219.23;2167017;81;21011;-84
2022/03/14 06:03:40;;;;;;;53.07;23.90;;;;;;;-1.45;68.53;100222.38;2167467;82;20945;-82
2022/03/14 06:06:41;;;;;;;74.13;28.20;;;;;;;-1.31;68.18;100221.83;2167753;81;20948;-83
2022/03/14 06:09:41;;;;;;;46.93;25.33;;;;;;;-1.13;67.92;100226.63;2167950;81;20933;-83
2022/03/14 06:12:42;;;;;;;45.60;25.80;;;;;;;-0.94;67.41;100228.97;2167363;81;21454;-84
2022/03/14 06:15:42;;;;;;;51.00;26.37;;;;;;;-0.77;67.06;100223.14;2168663;81;21937;-83
2022/03/14 06:18:43;;;;;;;52.73;26.53;;;;;;;-0.60;66.63;100229.58;2167625;81;21048;-84
2022/03/14 06:21:43;;;;;;;50.00;26.43;;;;;;;-0.44;66.28;100228.70;2167606;81;21003;-84
2022/03/14 06:24:46;;;;;;;58.97;26.73;;;;;;;-0.25;65.82;100227.53;2169444;81;21288;-82
2022/03/14 06:27:46;;;;;;;54.83;26.67;;;;;;;-0.13;65.57;100230.64;2169273;81;21019;-83
2022/03/14 06:30:47;;;;;;;45.40;26.77;;;;;;;0.02;65.14;100233.50;2168346;82;21347;-84
2022/03/14 06:33:49;;;;;;;63.30;26.97;;;;;;;0.21;64.70;100236.66;2167952;81;21011;-81
2022/03/14 06:36:50;;;;;;;50.07;29.13;;;;;;;0.34;64.21;100234.61;2169151;81;21031;-82
2022/03/14 06:39:50;;;;;;;48.83;28.30;;;;;;;0.46;63.85;100234.63;2169299;81;21024;-82
2022/03/14 06:42:52;;;;;;;44.63;26.73;;;;;;;0.56;63.68;100236.69;2168912;81;20929;-81
2022/03/14 06:45:52;;;;;;;45.83;27.47;;;;;;;0.70;63.26;100236.80;2168663;82;21347;-81
2022/03/14 06:48:53;;;;;;;53.73;27.53;;;;;;;0.81;63.13;100246.19;2169559;81;20968;-81
2022/03/14 06:51:53;;;;;;;50.70;27.63;;;;;;;0.94;62.68;100243.74;2170964;81;20968;-82
2022/03/14 06:54:54;;;;;;;57.90;27.37;;;;;;;1.10;62.35;100245.73;2168404;81;21020;-80
2022/03/14 06:57:55;;;;;;;56.00;29.07;;;;;;;1.31;62.02;100242.50;2169367;81;20996;-82
2022/03/14 07:00:57;;;;;;;42.43;27.33;;;;;;;1.46;61.63;100243.57;2167691;81;21035;-82
2022/03/14 07:03:57;;;;;;;45.47;27.47;;;;;;;1.62;61.01;100243.84;2168445;82;21266;-81
2022/03/14 07:07:01;;;;;;;44.13;27.07;;;;;;;1.79;60.77;100248.50;2166754;82;21765;-83
2022/03/14 07:10:00;;;;;;;53.10;29.20;;;;;;;1.97;60.29;100250.55;2166554;81;21007;-80
2022/03/14 07:13:01;;;;;;;44.90;27.87;;;;;;;2.11;59.76;100248.50;2166767;81;21046;-81
2022/03/14 07:16:02;;;;;;;45.17;27.43;;;;;;;2.27;59.76;100257.76;2166629;81;21439;-81
2022/03/14 07:19:02;;;;;;;175.13;34.67;;;;;;;2.48;59.13;100258.29;2167536;81;21028;-81
2022/03/14 07:22:03;;;;;;;44.37;27.50;;;;;;;2.64;59.13;100261.51;2169860;81;20972;-82
2022/03/14 07:28:07;;;;;;;45.83;28.90;;;;;;;2.95;57.82;100265.68;2159927;82;21012;-81
2022/03/14 07:31:08;;;;;;;45.47;28.40;;;;;;;3.06;57.49;100260.41;2169663;81;20953;-82
2022/03/14 07:34:10;;;;;;;44.63;29.03;;;;;;;3.27;57.57;100262.56;2168198;81;21511;-81
2022/03/14 07:37:11;;;;;;;47.27;29.13;;;;;;;3.43;56.87;100262.73;2169102;82;21308;-81
2022/03/14 07:40:11;;;;;;;49.50;29.53;;;;;;;3.55;56.23;100266.50;2170492;81;20929;-82
2022/03/14 07:43:12;;;;;;;42.53;27.03;;;;;;;3.56;55.79;100269.18;2168700;82;21348;-83
2022/03/14 07:46:12;;;;;;;53.40;29.30;;;;;;;3.63;55.44;100273.03;2169198;81;21016;-83
2022/03/14 07:49:14;;;;;;;48.73;29.90;;;;;;;3.70;55.67;100271.33;2170088;81;21007;-84
2022/03/14 07:52:14;;;;;;;41.90;27.10;;;;;;;3.90;56.20;100269.95;2169445;81;21064;-82
2022/03/14 07:55:15;;;;;;;53.33;26.87;;;;;;;4.07;55.43;100269.28;2167586;81;21063;-80
2022/03/14 07:58:15;;;;;;;46.47;26.03;;;;;;;5.30;68.15;100263.95;2167849;82;21423;-81
2022/03/14 08:01:17;;;;;;;51.53;28.30;;;;;;;9.10;60.66;100253.30;2167906;81;20997;-78
2022/03/14 08:04:17;;;;;;;59.90;29.53;;;;;;;11.60;50.65;100237.39;2168200;81;21044;-82
2022/03/14 08:07:20;;;;;;;44.27;27.20;;;;;;;10.67;45.71;100240.94;2168889;82;20972;-82
2022/03/14 08:10:20;;;;;;;38.70;26.57;;;;;;;9.38;45.18;100245.74;2167919;81;21083;-82
2022/03/14 08:13:21;;;;;;;38.17;25.43;;;;;;;8.50;44.76;100242.12;2168174;82;21598;-82
2022/03/14 08:16:22;;;;;;;39.87;26.47;;;;;;;7.78;45.36;100243.23;2168493;81;21384;-82
2022/03/14 08:19:23;;;;;;;39.80;25.87;;;;;;;7.23;46.02;100251.08;2167319;81;21617;-82
2022/03/14 08:22:23;;;;;;;101.03;29.60;;;;;;;6.91;46.52;100251.69;2168453;81;20952;-81
2022/03/14 08:25:24;;;;;;;42.20;27.57;;;;;;;6.82;47.16;100249.95;2167803;81;21506;-82
2022/03/14 08:28:24;;;;;;;40.03;26.40;;;;;;;6.70;46.69;100254.53;2168918;81;20937;-80
2022/03/14 08:31:25;;;;;;;42.10;26.23;;;;;;;6.69;47.30;100256.65;2171143;81;20937;-82
2022/03/14 08:34:25;;;;;;;41.30;26.37;;;;;;;6.80;47.63;100250.69;2169513;81;20996;-83
2022/03/14 08:37:26;;;;;;;39.17;26.17;;;;;;;6.88;46.85;100246.76;2168414;81;20988;-81
2022/03/14 08:40:27;;;;;;;41.10;27.37;;;;;;;6.85;47.13;100252.69;2169705;81;20992;-82
2022/03/14 08:43:27;;;;;;;85.80;30.03;;;;;;;6.89;46.88;100255.03;2170529;81;21004;-81
2022/03/14 08:46:28;;;;;;;41.30;26.40;;;;;;;6.93;46.75;100259.14;2169998;81;21423;-82
2022/03/14 08:49:28;;;;;;;49.30;27.67;;;;;;;7.01;46.86;100257.84;2171148;81;21024;-83
2022/03/14 08:52:29;;;;;;;42.17;25.17;;;;;;;7.17;46.35;100257.28;2169167;81;20965;-83
2022/03/14 08:55:30;;;;;;;43.50;26.87;;;;;;;7.26;45.73;100259.02;2168443;81;21007;-83
2022/03/14 08:58:31;;;;;;;42.80;25.53;;;;;;;7.34;45.95;100261.16;2167397;81;21000;-81
2022/03/14 09:01:32;;;;;;;41.90;27.33;;;;;;;7.43;45.40;100262.41;2168120;81;22031;-83
2022/03/14 09:04:34;;;;;;;40.00;24.80;;;;;;;7.50;45.95;100262.76;2168967;81;20992;-82
2022/03/14 09:07:34;;;;;;;40.13;26.63;;;;;;;7.67;45.11;100261.83;2170405;82;21036;-82
2022/03/14 09:10:37;;;;;;;40.63;27.23;;;;;;;7.71;43.72;100264.16;2170701;81;20964;-82
2022/03/14 09:13:38;;;;;;;41.40;25.83;;;;;;;7.75;44.44;100266.08;2170514;81;20999;-82
2022/03/14 09:16:39;;;;;;;39.47;26.50;;;;;;;7.83;42.96;100257.36;2169478;81;20981;-82
2022/03/14 09:19:40;;;;;;;41.20;24.67;;;;;;;7.92;43.31;100248.67;2170410;82;20981;-81
2022/03/14 09:22:44;;;;;;;34.07;23.07;;;;;;;8.07;43.35;100254.95;2167805;81;21032;-81
2022/03/14 09:25:43;;;;;;;37.20;22.07;;;;;;;8.26;43.29;100255.83;2169265;81;21035;-82
2022/03/14 09:28:44;;;;;;;33.70;23.10;;;;;;;8.48;41.20;100255.48;2170639;81;21024;-81
2022/03/14 09:31:49;;;;;;;38.20;24.00;;;;;;;8.40;41.84;100249.06;2170482;81;21317;-82
2022/03/14 09:34:49;;;;;;;;;;;;;;;8.55;41.85;100254.50;2173882;82;21009;-82
2022/03/14 09:37:50;;;;;;;649.23;64.77;;;;;;;8.77;41.65;100248.51;2171377;81;20131;-81
2022/03/14 09:40:51;;;;;;;84.33;25.60;;;;;;;8.85;41.22;100245.80;2170792;82;20984;-82
2022/03/14 09:43:52;;;;;;;38.37;23.47;;;;;;;8.99;40.88;100246.78;2170045;81;20956;-82
2022/03/14 09:46:53;;;;;;;37.83;22.47;;;;;;;9.13;40.51;100245.20;2170114;81;21023;-82
2022/03/14 09:49:54;;;;;;;32.40;22.40;;;;;;;9.22;40.01;100237.74;2170326;81;20949;-82
2022/03/14 09:52:55;;;;;;;32.70;21.67;;;;;;;9.32;39.31;100242.90;2170487;81;21363;-81
2022/03/14 09:55:56;;;;;;;32.37;22.07;;;;;;;9.47;39.42;100242.19;2170302;81;20988;-82
2022/03/14 09:58:56;;;;;;;36.33;23.37;;;;;;;9.55;39.42;100241.21;2171150;81;20980;-83
2022/03/14 10:01:57;;;;;;;34.53;22.10;;;;;;;9.53;38.46;100242.42;2171039;81;20977;-81
2022/03/14 10:04:58;;;;;;;33.97;22.90;;;;;;;9.50;38.02;100248.82;2171740;81;21015;-81
2022/03/14 10:07:59;;;;;;;50.97;22.97;;;;;;;9.54;38.26;100242.04;2171845;82;20953;-82
2022/03/14 10:11:00;;;;;;;36.33;21.53;;;;;;;9.60;38.43;100245.30;2172393;81;20996;-82
2022/03/14 10:14:02;;;;;;;35.47;22.47;;;;;;;9.74;38.32;100245.39;2171505;81;21426;-82
2022/03/14 10:17:02;;;;;;;43.77;23.17;;;;;;;9.90;38.18;100238.61;2171145;81;21016;-81
2022/03/14 10:20:06;;;;;;;38.37;24.00;;;;;;;9.98;37.54;100238.47;2160128;82;21000;-81
2022/03/14 10:26:09;;;;;;;50.17;23.63;;;;;;;10.05;37.48;100243.08;2159366;82;21012;-81
2022/03/14 10:29:12;;;;;;;42.83;22.87;;;;;;;10.19;37.91;100237.05;2170399;82;21024;-82
2022/03/14 10:32:30;;;;;;;35.37;22.47;;;;;;;10.32;37.39;100237.09;2167634;81;21058;-81
2022/03/14 10:35:30;;;;;;;36.37;24.03;;;;;;;10.43;37.10;100239.69;2169890;81;21371;-82
2022/03/14 10:38:31;;;;;;;40.33;22.47;;;;;;;10.43;37.19;100240.58;2170800;81;21000;-80
2022/03/14 10:41:32;;;;;;;122.87;29.47;;;;;;;10.53;36.98;100236.56;2170837;82;21023;-83
2022/03/14 10:44:33;;;;;;;32.07;20.53;;;;;;;10.67;36.88;100237.02;2171898;81;20957;-83
2022/03/14 10:47:33;;;;;;;35.83;23.00;;;;;;;10.83;35.43;100236.28;2169732;81;21095;-80
2022/03/14 10:53:36;;;;;;;40.10;24.13;;;;;;;10.99;36.59;100232.85;2157205;82;21003;-83
2022/03/14 10:56:38;;;;;;;46.63;23.10;;;;;;;11.07;35.92;100232.67;2170052;81;20968;-82
2022/03/14 10:59:38;;;;;;;40.75;24.10;;;;;;;11.13;35.91;100228.95;2170416;81;21024;-82
2022/03/14 11:02:39;;;;;;;56.85;23.47;;;;;;;11.21;35.25;100232.69;2169113;81;20968;-82
2022/03/14 11:05:39;;;;;;;52.40;22.42;;;;;;;11.23;35.40;100229.70;2169118;81;21028;-82
2022/03/14 11:08:40;;;;;;;89.28;29.60;;;;;;;11.28;34.89;100224.23;2168270;81;21012;-82
2022/03/14 11:11:41;;;;;;;41.50;24.25;;;;;;;11.40;35.33;100218.49;2169566;81;20981;-78
2022/03/14 11:14:41;;;;;;;52.20;23.27;;;;;;;11.42;33.42;100224.23;2170606;82;21008;-83
2022/03/14 11:17:42;;;;;;;28.35;18.10;;;;;;;11.38;33.74;100221.48;2169636;81;21043;-83
2022/03/14 11:20:43;;;;;;;47.88;20.12;;;;;;;11.42;32.21;100220.31;2171313;81;20957;-81
2022/03/14 11:23:43;;;;;;;50.45;24.07;;;;;;;11.35;32.67;100215.73;2169436;81;20953;-81
2022/03/14 11:26:46;;;;;;;30.23;19.10;;;;;;;11.33;34.10;100217.84;2169707;81;21380;-81
2022/03/14 11:29:46;;;;;;;36.73;21.17;;;;;;;11.47;32.91;100204.77;2170744;81;21055;-83
2022/03/14 11:32:47;;;;;;;31.52;21.85;;;;;;;11.54;33.28;100199.30;2171246;81;21040;-82
2022/03/14 11:35:47;;;;;;;60.67;23.15;;;;;;;11.54;32.48;100197.56;2171564;81;20968;-81
2022/03/14 11:38:48;;;;;;;34.53;20.60;;;;;;;11.68;33.37;100194.93;2170239;81;21258;-82
2022/03/14 11:41:48;;;;;;;33.70;21.60;;;;;;;11.79;32.29;100193.54;2170548;81;20992;-82
2022/03/14 11:44:51;;;;;;;50.75;23.18;;;;;;;11.89;33.19;100188.14;2160187;81;21086;-82
2022/03/14 11:47:51;;;;;;;36.20;22.20;;;;;;;11.97;32.89;100191.86;2170551;81;21464;-79
2022/03/14 11:50:52;;;;;;;39.92;21.70;;;;;;;11.96;32.55;100195.73;2169982;81;21008;-80
2022/03/14 11:53:52;;;;;;;44.83;21.00;;;;;;;11.97;32.71;100184.01;2170713;81;21055;-81
2022/03/14 11:56:53;;;;;;;40.05;21.80;;;;;;;12.07;32.84;100181.22;2170620;81;20964;-82
2022/03/14 11:59:56;;;;;;;28.30;20.02;;;;;;;12.24;32.55;100181.70;2170195;81;21087;-80
2022/03/14 12:02:57;;;;;;;31.48;21.90;;;;;;;12.30;31.82;100179.24;2171104;81;21364;-83
2022/03/14 12:05:57;;;;;;;26.48;19.50;;;;;;;12.34;31.75;100181.98;2170998;81;21916;-80
2022/03/14 12:08:58;;;;;;;32.17;20.95;;;;;;;12.39;32.52;100180.78;2171748;82;21047;-81
2022/03/14 12:12:01;;;;;;;28.50;20.15;;;;;;;12.42;32.34;100177.83;2161431;82;21004;-82
2022/03/14 12:15:01;;;;;;;37.50;20.12;;;;;;;12.50;31.98;100181.95;2170767;81;21004;-80
2022/03/14 12:18:02;;;;;;;31.68;20.77;;;;;;;12.55;32.22;100176.83;2171097;81;21064;-82
2022/03/14 12:21:03;;;;;;;27.82;18.70;;;;;;;12.50;31.07;100167.97;2170988;81;21042;-82
2022/03/14 12:24:03;;;;;;;24.10;17.42;;;;;;;12.50;31.29;100166.23;2171077;81;21677;-82
2022/03/14 12:27:04;;;;;;;23.87;17.32;;;;;;;12.61;30.82;100161.26;2168147;81;21025;-82
2022/03/14 12:30:06;;;;;;;48.63;18.57;;;;;;;12.66;30.04;100156.59;2168349;81;20996;-82
2022/03/14 12:33:07;;;;;;;28.83;17.42;;;;;;;12.73;30.56;100153.70;2168941;82;21669;-82
2022/03/14 12:36:08;;;;;;;27.30;17.07;;;;;;;12.76;30.46;100152.45;2170796;81;21019;-80
2022/03/14 12:39:21;;;;;;;30.00;14.60;;;;;;;12.78;29.77;100142.02;2168660;81;21254;-81
2022/03/14 12:42:17;;;;;;;34.98;16.23;;;;;;;12.81;29.33;100139.04;2169791;81;21027;-81
2022/03/14 12:45:17;;;;;;;27.30;15.83;;;;;;;12.82;29.85;100137.30;2167369;81;21419;-81
2022/03/14 12:48:18;;;;;;;25.02;15.95;;;;;;;12.90;29.86;100140.98;2169973;81;21020;-82
2022/03/14 12:51:19;;;;;;;52.50;15.35;;;;;;;12.97;30.05;100141.16;2168110;81;21399;-82
2022/03/14 12:54:20;;;;;;;144.17;22.62;;;;;;;13.05;29.12;100141.38;2167939;81;20972;-82
2022/03/14 12:57:21;;;;;;;19.02;13.20;;;;;;;13.01;29.08;100140.41;2167587;81;20985;-81
2022/03/14 13:00:21;;;;;;;18.20;13.05;;;;;;;13.01;28.64;100129.05;2168951;81;21008;-82
2022/03/14 13:03:22;;;;;;;26.57;13.30;;;;;;;13.04;28.99;100127.38;2169026;81;21020;-82
2022/03/14 13:06:23;;;;;;;23.00;12.20;;;;;;;13.12;28.54;100127.55;2169368;81;20960;-82
2022/03/14 13:09:25;;;;;;;21.40;11.68;;;;;;;13.17;28.17;100119.39;2159961;82;20981;-83
2022/03/14 13:12:26;;;;;;;22.32;12.10;;;;;;;13.17;27.76;100124.63;2168785;81;21614;-82
2022/03/14 13:15:27;;;;;;;13.72;10.78;;;;;;;13.14;27.89;100131.52;2167924;81;21745;-80
2022/03/14 13:18:27;;;;;;;16.80;11.03;;;;;;;13.09;27.75;100128.80;2164333;81;21039;-83
2022/03/14 13:21:28;;;;;;;39.27;12.10;;;;;;;13.08;26.98;100130.53;2168192;81;21374;-83
2022/03/14 13:24:29;;;;;;;48.78;11.05;;;;;;;13.05;27.39;100134.81;2169048;81;21335;-81
2022/03/14 13:27:30;;;;;;;14.35;10.08;;;;;;;12.95;26.96;100132.37;2167950;81;20969;-81
2022/03/14 13:30:30;;;;;;;18.07;10.72;;;;;;;12.85;27.58;100128.20;2168235;81;20984;-78
2022/03/14 13:33:31;;;;;;;25.50;10.65;;;;;;;12.88;27.65;100125.66;2165189;81;21454;-80
2022/03/14 13:36:34;;;;;;;20.25;11.33;;;;;;;12.89;26.90;100124.80;2167744;81;20980;-81
2022/03/14 13:39:34;;;;;;;20.57;11.03;;;;;;;12.83;27.68;100120.73;2170286;80;20988;-81
2022/03/14 13:42:36;;;;;;;14.35;10.70;;;;;;;12.80;27.83;100128.09;2170415;81;21359;-80
2022/03/14 13:45:36;;;;;;;14.60;11.03;;;;;;;12.83;27.89;100134.72;2168017;82;20976;-81
2022/03/14 13:48:37;;;;;;;20.85;11.30;;;;;;;12.86;27.22;100127.36;2168002;81;21079;-82
2022/03/14 13:51:38;;;;;;;16.45;11.75;;;;;;;12.81;27.20;100133.80;2168355;81;20965;-81
2022/03/14 13:54:38;;;;;;;17.35;11.55;;;;;;;12.72;27.86;100138.40;2168424;81;20996;-80
2022/03/14 13:57:38;;;;;;;13.45;10.32;;;;;;;12.72;27.86;100138.40;2171208;81;20980;-81
2022/03/14 14:00:39;;;;;;;14.45;9.78;;;;;;;12.69;26.94;100133.09;2170104;81;20972;-81